N524LA KBNG-KSAN
Flight info
| Callsign | N524LA |
|---|---|
| Flight time | 0h 53m |
| Altitude | 8000 |
| Route | MZB |
| Aircraft | DA40/L-VGD/C |
Departure
| Time | 2026-05-04 02:28 |
|---|---|
| Airport | Banning Municipal Airport (KBNG) |
Arrival
| Time | 2026-05-04 03:21 |
|---|---|
| Airport | San Diego International Airport (KSAN) |
| Time | Latitude | Longitude | Altitude | Speed | Heading |
|---|---|---|---|---|---|
| 2026-05-04 02:14 | 33.92164 | -116.85809 | 2147 ft | 0 kts | 92° |
| 2026-05-04 02:17 | 33.92166 | -116.85799 | 2144 ft | 3 kts | 68° |
| 2026-05-04 02:17 | 33.92183 | -116.85782 | 2147 ft | 4 kts | 36° |
| 2026-05-04 02:17 | 33.92205 | -116.85737 | 2149 ft | 9 kts | 83° |
| 2026-05-04 02:17 | 33.92204 | -116.85637 | 2141 ft | 11 kts | 90° |
| 2026-05-04 02:18 | 33.92204 | -116.85544 | 2136 ft | 14 kts | 90° |
| 2026-05-04 02:18 | 33.92203 | -116.85407 | 2124 ft | 19 kts | 92° |
| 2026-05-04 02:18 | 33.92201 | -116.85235 | 2115 ft | 20 kts | 91° |
| 2026-05-04 02:18 | 33.92200 | -116.85077 | 2107 ft | 19 kts | 89° |
| 2026-05-04 02:19 | 33.92200 | -116.84940 | 2096 ft | 15 kts | 89° |
| 2026-05-04 02:19 | 33.92198 | -116.84814 | 2088 ft | 14 kts | 90° |
| 2026-05-04 02:19 | 33.92198 | -116.84681 | 2079 ft | 18 kts | 90° |
| 2026-05-04 02:19 | 33.92197 | -116.84525 | 2069 ft | 18 kts | 91° |
| 2026-05-04 02:20 | 33.92196 | -116.84375 | 2056 ft | 17 kts | 90° |
| 2026-05-04 02:20 | 33.92190 | -116.84249 | 2045 ft | 14 kts | 110° |
| 2026-05-04 02:20 | 33.92192 | -116.84217 | 2043 ft | 0 kts | 314° |
| 2026-05-04 02:22 | 33.92202 | -116.84222 | 2044 ft | 0 kts | 346° |
| 2026-05-04 02:26 | 33.92203 | -116.84222 | 2044 ft | 1 kts | 347° |
| 2026-05-04 02:26 | 33.92230 | -116.84229 | 2048 ft | 6 kts | 328° |
| 2026-05-04 02:26 | 33.92249 | -116.84280 | 2052 ft | 8 kts | 274° |
| 2026-05-04 02:26 | 33.92251 | -116.84468 | 2065 ft | 42 kts | 270° |
| 2026-05-04 02:27 | 33.92258 | -116.84928 | 2157 ft | 61 kts | 273° |
| 2026-05-04 02:27 | 33.92294 | -116.85461 | 2324 ft | 67 kts | 269° |
| 2026-05-04 02:27 | 33.92325 | -116.86033 | 2536 ft | 69 kts | 270° |
| 2026-05-04 02:27 | 33.92358 | -116.86620 | 2709 ft | 73 kts | 272° |
| 2026-05-04 02:28 | 33.92368 | -116.87260 | 2840 ft | 77 kts | 264° |
| 2026-05-04 02:28 | 33.92319 | -116.87903 | 3078 ft | 76 kts | 261° |
| 2026-05-04 02:28 | 33.92272 | -116.88542 | 3281 ft | 78 kts | 256° |
| 2026-05-04 02:28 | 33.92033 | -116.89141 | 3459 ft | 81 kts | 232° |
| 2026-05-04 02:29 | 33.91579 | -116.89532 | 3674 ft | 84 kts | 207° |
| 2026-05-04 02:29 | 33.91012 | -116.89683 | 3902 ft | 82 kts | 192° |
| 2026-05-04 02:29 | 33.90439 | -116.89754 | 4104 ft | 84 kts | 191° |
| 2026-05-04 02:29 | 33.89863 | -116.89816 | 4316 ft | 84 kts | 191° |
| 2026-05-04 02:30 | 33.89267 | -116.89879 | 4504 ft | 86 kts | 187° |
| 2026-05-04 02:30 | 33.88706 | -116.89951 | 4739 ft | 79 kts | 190° |
| 2026-05-04 02:30 | 33.88157 | -116.90118 | 4888 ft | 83 kts | 197° |
| 2026-05-04 02:30 | 33.87584 | -116.90303 | 5026 ft | 89 kts | 196° |
| 2026-05-04 02:31 | 33.86980 | -116.90488 | 5228 ft | 89 kts | 197° |
| 2026-05-04 02:31 | 33.86402 | -116.90663 | 5486 ft | 84 kts | 197° |
| 2026-05-04 02:31 | 33.85826 | -116.90838 | 5680 ft | 89 kts | 195° |
| 2026-05-04 02:31 | 33.85223 | -116.91018 | 5875 ft | 88 kts | 197° |
| 2026-05-04 02:32 | 33.84616 | -116.91201 | 6106 ft | 91 kts | 197° |
| 2026-05-04 02:32 | 33.83992 | -116.91387 | 6339 ft | 92 kts | 196° |
| 2026-05-04 02:32 | 33.83378 | -116.91570 | 6562 ft | 92 kts | 199° |
| 2026-05-04 02:32 | 33.82780 | -116.91747 | 6788 ft | 88 kts | 199° |
| 2026-05-04 02:33 | 33.82189 | -116.91931 | 7013 ft | 88 kts | 201° |
| 2026-05-04 02:33 | 33.81589 | -116.92105 | 7180 ft | 89 kts | 198° |
| 2026-05-04 02:33 | 33.80984 | -116.92284 | 7364 ft | 90 kts | 199° |
| 2026-05-04 02:33 | 33.80386 | -116.92465 | 7581 ft | 88 kts | 199° |
| 2026-05-04 02:34 | 33.79795 | -116.92637 | 7808 ft | 87 kts | 200° |
| 2026-05-04 02:34 | 33.79202 | -116.92815 | 8000 ft | 91 kts | 199° |
| 2026-05-04 02:34 | 33.78536 | -116.93018 | 8006 ft | 104 kts | 200° |
| 2026-05-04 02:34 | 33.77818 | -116.93236 | 8009 ft | 109 kts | 199° |
| 2026-05-04 02:35 | 33.77067 | -116.93463 | 8011 ft | 113 kts | 199° |
| 2026-05-04 02:35 | 33.76302 | -116.93693 | 8011 ft | 114 kts | 199° |
| 2026-05-04 02:35 | 33.75526 | -116.93925 | 8014 ft | 115 kts | 199° |
| 2026-05-04 02:35 | 33.74750 | -116.94156 | 8106 ft | 117 kts | 199° |
| 2026-05-04 02:36 | 33.73960 | -116.94391 | 8106 ft | 117 kts | 199° |
| 2026-05-04 02:36 | 33.73170 | -116.94626 | 8106 ft | 117 kts | 200° |
| 2026-05-04 02:36 | 33.72377 | -116.94861 | 8106 ft | 117 kts | 199° |
| 2026-05-04 02:36 | 33.71592 | -116.95094 | 8102 ft | 115 kts | 200° |
| 2026-05-04 02:37 | 33.70814 | -116.95326 | 8105 ft | 116 kts | 199° |
| 2026-05-04 02:37 | 33.70026 | -116.95560 | 8106 ft | 117 kts | 199° |
| 2026-05-04 02:37 | 33.69235 | -116.95795 | 8106 ft | 117 kts | 199° |
| 2026-05-04 02:37 | 33.68444 | -116.96030 | 8106 ft | 117 kts | 199° |
| 2026-05-04 02:38 | 33.67655 | -116.96264 | 8105 ft | 117 kts | 199° |
| 2026-05-04 02:38 | 33.66867 | -116.96498 | 8102 ft | 116 kts | 199° |
| 2026-05-04 02:38 | 33.66087 | -116.96728 | 8104 ft | 115 kts | 199° |
| 2026-05-04 02:38 | 33.65318 | -116.96957 | 8103 ft | 116 kts | 199° |
| 2026-05-04 02:39 | 33.64536 | -116.97190 | 8099 ft | 115 kts | 199° |
| 2026-05-04 02:39 | 33.63765 | -116.97410 | 8094 ft | 112 kts | 200° |
| 2026-05-04 02:39 | 33.63006 | -116.97637 | 8100 ft | 113 kts | 200° |
| 2026-05-04 02:39 | 33.62218 | -116.97876 | 8004 ft | 121 kts | 200° |
| 2026-05-04 02:40 | 33.61406 | -116.98118 | 8009 ft | 119 kts | 200° |
| 2026-05-04 02:40 | 33.60604 | -116.98355 | 8000 ft | 118 kts | 200° |
| 2026-05-04 02:40 | 33.59810 | -116.98591 | 7994 ft | 117 kts | 200° |
| 2026-05-04 02:40 | 33.59033 | -116.98821 | 7995 ft | 116 kts | 200° |
| 2026-05-04 02:41 | 33.58247 | -116.99054 | 7992 ft | 116 kts | 200° |
| 2026-05-04 02:41 | 33.57460 | -116.99288 | 7996 ft | 116 kts | 200° |
| 2026-05-04 02:41 | 33.56677 | -116.99519 | 7992 ft | 115 kts | 200° |
| 2026-05-04 02:41 | 33.55896 | -116.99751 | 7989 ft | 115 kts | 200° |
| 2026-05-04 02:42 | 33.55114 | -116.99982 | 7990 ft | 115 kts | 200° |
| 2026-05-04 02:42 | 33.54335 | -117.00213 | 7991 ft | 116 kts | 200° |
| 2026-05-04 02:42 | 33.53563 | -117.00442 | 7989 ft | 115 kts | 199° |
| 2026-05-04 02:42 | 33.52786 | -117.00672 | 7991 ft | 115 kts | 200° |
| 2026-05-04 02:43 | 33.52007 | -117.00903 | 7995 ft | 116 kts | 199° |
| 2026-05-04 02:43 | 33.51222 | -117.01136 | 7985 ft | 116 kts | 200° |
| 2026-05-04 02:43 | 33.50445 | -117.01367 | 7983 ft | 115 kts | 200° |
| 2026-05-04 02:43 | 33.49671 | -117.01593 | 7992 ft | 115 kts | 200° |
| 2026-05-04 02:44 | 33.48894 | -117.01821 | 7982 ft | 116 kts | 199° |
| 2026-05-04 02:44 | 33.48106 | -117.02054 | 7981 ft | 117 kts | 200° |
| 2026-05-04 02:44 | 33.47325 | -117.02285 | 7978 ft | 117 kts | 200° |
| 2026-05-04 02:44 | 33.46549 | -117.02514 | 7971 ft | 113 kts | 200° |
| 2026-05-04 02:45 | 33.45788 | -117.02736 | 7981 ft | 113 kts | 200° |
| 2026-05-04 02:45 | 33.45016 | -117.02966 | 7981 ft | 116 kts | 200° |
| 2026-05-04 02:45 | 33.44234 | -117.03200 | 7978 ft | 116 kts | 200° |
| 2026-05-04 02:45 | 33.43450 | -117.03432 | 7981 ft | 115 kts | 200° |
| 2026-05-04 02:46 | 33.42671 | -117.03661 | 7981 ft | 116 kts | 200° |
| 2026-05-04 02:46 | 33.41884 | -117.03894 | 7983 ft | 117 kts | 200° |
| 2026-05-04 02:46 | 33.41086 | -117.04129 | 7982 ft | 118 kts | 200° |
| 2026-05-04 02:46 | 33.40287 | -117.04365 | 7980 ft | 118 kts | 200° |
| 2026-05-04 02:47 | 33.39500 | -117.04597 | 7974 ft | 118 kts | 200° |
| 2026-05-04 02:47 | 33.38711 | -117.04827 | 7974 ft | 115 kts | 201° |
| 2026-05-04 02:47 | 33.37940 | -117.05057 | 7976 ft | 114 kts | 201° |
| 2026-05-04 02:47 | 33.37163 | -117.05285 | 7973 ft | 116 kts | 200° |
| 2026-05-04 02:48 | 33.36381 | -117.05516 | 7968 ft | 116 kts | 200° |
| 2026-05-04 02:48 | 33.35596 | -117.05748 | 7964 ft | 115 kts | 200° |
| 2026-05-04 02:48 | 33.35082 | -117.05899 | 7969 ft | 115 kts | 200° |
| 2026-05-04 02:48 | 33.34292 | -117.06133 | 7970 ft | 118 kts | 200° |
| 2026-05-04 02:49 | 33.33493 | -117.06368 | 7975 ft | 117 kts | 200° |
| 2026-05-04 02:49 | 33.32708 | -117.06594 | 7983 ft | 115 kts | 200° |
| 2026-05-04 02:49 | 33.31933 | -117.06822 | 7980 ft | 113 kts | 200° |
| 2026-05-04 02:49 | 33.31165 | -117.07051 | 7979 ft | 115 kts | 200° |
| 2026-05-04 02:50 | 33.30386 | -117.07283 | 7979 ft | 116 kts | 201° |
| 2026-05-04 02:50 | 33.29601 | -117.07514 | 7983 ft | 117 kts | 201° |
| 2026-05-04 02:50 | 33.28823 | -117.07741 | 7985 ft | 117 kts | 200° |
| 2026-05-04 02:50 | 33.28037 | -117.07973 | 7978 ft | 116 kts | 200° |
| 2026-05-04 02:51 | 33.27251 | -117.08205 | 7976 ft | 116 kts | 200° |
| 2026-05-04 02:51 | 33.26471 | -117.08435 | 7978 ft | 114 kts | 200° |
| 2026-05-04 02:51 | 33.25696 | -117.08663 | 7976 ft | 115 kts | 200° |
| 2026-05-04 02:51 | 33.24919 | -117.08891 | 7979 ft | 115 kts | 200° |
| 2026-05-04 02:52 | 33.24134 | -117.09125 | 7976 ft | 117 kts | 201° |
| 2026-05-04 02:52 | 33.23343 | -117.09355 | 7985 ft | 118 kts | 200° |
| 2026-05-04 02:52 | 33.22551 | -117.09586 | 7981 ft | 117 kts | 200° |
| 2026-05-04 02:52 | 33.21763 | -117.09817 | 7981 ft | 116 kts | 200° |
| 2026-05-04 02:53 | 33.20991 | -117.10043 | 7985 ft | 116 kts | 200° |
| 2026-05-04 02:53 | 33.20212 | -117.10271 | 7978 ft | 113 kts | 200° |
| 2026-05-04 02:53 | 33.19462 | -117.10498 | 7994 ft | 111 kts | 200° |
| 2026-05-04 02:53 | 33.18704 | -117.10714 | 8001 ft | 112 kts | 200° |
| 2026-05-04 02:54 | 33.17935 | -117.10938 | 7990 ft | 114 kts | 200° |
| 2026-05-04 02:54 | 33.17169 | -117.11165 | 7987 ft | 114 kts | 201° |
| 2026-05-04 02:54 | 33.16401 | -117.11395 | 7995 ft | 114 kts | 200° |
| 2026-05-04 02:54 | 33.15622 | -117.11620 | 7991 ft | 115 kts | 200° |
| 2026-05-04 02:55 | 33.14079 | -117.12071 | 7994 ft | 114 kts | 201° |
| 2026-05-04 02:55 | 33.13309 | -117.12298 | 7994 ft | 114 kts | 200° |
| 2026-05-04 02:55 | 33.12536 | -117.12524 | 7998 ft | 114 kts | 201° |
| 2026-05-04 02:56 | 33.11772 | -117.12748 | 7996 ft | 115 kts | 201° |
| 2026-05-04 02:56 | 33.10998 | -117.12976 | 7993 ft | 115 kts | 201° |
| 2026-05-04 02:56 | 33.10224 | -117.13202 | 7994 ft | 114 kts | 201° |
| 2026-05-04 02:56 | 33.09452 | -117.13428 | 7993 ft | 114 kts | 200° |
| 2026-05-04 02:57 | 33.08686 | -117.13652 | 8003 ft | 113 kts | 200° |
| 2026-05-04 02:57 | 33.07917 | -117.13874 | 8002 ft | 114 kts | 201° |
| 2026-05-04 02:57 | 33.07144 | -117.14103 | 7999 ft | 114 kts | 201° |
| 2026-05-04 02:57 | 33.06378 | -117.14329 | 7999 ft | 113 kts | 199° |
| 2026-05-04 02:58 | 33.05627 | -117.14539 | 8004 ft | 110 kts | 201° |
| 2026-05-04 02:58 | 33.04875 | -117.14767 | 8007 ft | 113 kts | 201° |
| 2026-05-04 02:58 | 33.04099 | -117.14995 | 8004 ft | 116 kts | 201° |
| 2026-05-04 02:58 | 33.03319 | -117.15223 | 8005 ft | 116 kts | 201° |
| 2026-05-04 02:59 | 33.02537 | -117.15452 | 8003 ft | 115 kts | 201° |
| 2026-05-04 02:59 | 33.01757 | -117.15680 | 8004 ft | 115 kts | 201° |
| 2026-05-04 02:59 | 33.00976 | -117.15908 | 8004 ft | 116 kts | 201° |
| 2026-05-04 02:59 | 33.00195 | -117.16137 | 8004 ft | 116 kts | 201° |
| 2026-05-04 03:00 | 32.99420 | -117.16363 | 8004 ft | 116 kts | 201° |
| 2026-05-04 03:00 | 32.98637 | -117.16591 | 8004 ft | 116 kts | 201° |
| 2026-05-04 03:00 | 32.97856 | -117.16819 | 8005 ft | 115 kts | 201° |
| 2026-05-04 03:00 | 32.97108 | -117.17038 | 8005 ft | 116 kts | 201° |
| 2026-05-04 03:01 | 32.96328 | -117.17266 | 8033 ft | 115 kts | 201° |
| 2026-05-04 03:01 | 32.95546 | -117.17495 | 8033 ft | 116 kts | 200° |
| 2026-05-04 03:01 | 32.94754 | -117.17725 | 8033 ft | 118 kts | 200° |
| 2026-05-04 03:01 | 32.93955 | -117.17959 | 8032 ft | 118 kts | 200° |
| 2026-05-04 03:02 | 32.93168 | -117.18188 | 8032 ft | 117 kts | 200° |
| 2026-05-04 03:02 | 32.92372 | -117.18421 | 8034 ft | 118 kts | 200° |
| 2026-05-04 03:02 | 32.91571 | -117.18655 | 8032 ft | 119 kts | 200° |
| 2026-05-04 03:02 | 32.90773 | -117.18888 | 8030 ft | 118 kts | 200° |
| 2026-05-04 03:03 | 32.89935 | -117.18867 | 7966 ft | 133 kts | 167° |
| 2026-05-04 03:03 | 32.89212 | -117.18051 | 7758 ft | 157 kts | 123° |
| 2026-05-04 03:03 | 32.88946 | -117.16755 | 7575 ft | 164 kts | 103° |
| 2026-05-04 03:03 | 32.88801 | -117.15407 | 7404 ft | 165 kts | 101° |
| 2026-05-04 03:04 | 32.88663 | -117.14058 | 7235 ft | 164 kts | 101° |
| 2026-05-04 03:04 | 32.88528 | -117.12716 | 7067 ft | 163 kts | 101° |
| 2026-05-04 03:04 | 32.88391 | -117.11377 | 6899 ft | 162 kts | 101° |
| 2026-05-04 03:04 | 32.88247 | -117.10043 | 6739 ft | 163 kts | 101° |
| 2026-05-04 03:05 | 32.88097 | -117.08713 | 6564 ft | 162 kts | 101° |
| 2026-05-04 03:05 | 32.87943 | -117.07393 | 6398 ft | 161 kts | 101° |
| 2026-05-04 03:05 | 32.87786 | -117.06075 | 6214 ft | 160 kts | 101° |
| 2026-05-04 03:05 | 32.87629 | -117.04782 | 6040 ft | 160 kts | 101° |
| 2026-05-04 03:06 | 32.87476 | -117.03509 | 6011 ft | 149 kts | 101° |
| 2026-05-04 03:06 | 32.87328 | -117.02307 | 6012 ft | 145 kts | 100° |
| 2026-05-04 03:06 | 32.87181 | -117.01131 | 6013 ft | 142 kts | 101° |
| 2026-05-04 03:06 | 32.87036 | -116.99972 | 6016 ft | 141 kts | 101° |
| 2026-05-04 03:07 | 32.86895 | -116.98816 | 6009 ft | 141 kts | 101° |
| 2026-05-04 03:07 | 32.86759 | -116.97677 | 6012 ft | 138 kts | 99° |
| 2026-05-04 03:07 | 32.86378 | -116.96675 | 6008 ft | 132 kts | 141° |
| 2026-05-04 03:07 | 32.85673 | -116.96003 | 6013 ft | 129 kts | 150° |
| 2026-05-04 03:08 | 32.84945 | -116.95379 | 6013 ft | 129 kts | 150° |
| 2026-05-04 03:08 | 32.84206 | -116.94755 | 6016 ft | 131 kts | 151° |
| 2026-05-04 03:08 | 32.83447 | -116.94112 | 5894 ft | 137 kts | 150° |
| 2026-05-04 03:08 | 32.82662 | -116.93456 | 5733 ft | 140 kts | 151° |
| 2026-05-04 03:09 | 32.81847 | -116.92784 | 5564 ft | 145 kts | 150° |
| 2026-05-04 03:09 | 32.81015 | -116.92110 | 5387 ft | 148 kts | 151° |
| 2026-05-04 03:09 | 32.80156 | -116.91418 | 5211 ft | 148 kts | 151° |
| 2026-05-04 03:09 | 32.79303 | -116.90748 | 5036 ft | 146 kts | 151° |
| 2026-05-04 03:10 | 32.78455 | -116.90079 | 4860 ft | 147 kts | 151° |
| 2026-05-04 03:10 | 32.77597 | -116.89420 | 4672 ft | 145 kts | 150° |
| 2026-05-04 03:10 | 32.76749 | -116.88781 | 4494 ft | 143 kts | 152° |
| 2026-05-04 03:10 | 32.75932 | -116.88124 | 4488 ft | 132 kts | 150° |
| 2026-05-04 03:11 | 32.75130 | -116.87572 | 4361 ft | 134 kts | 167° |
| 2026-05-04 03:11 | 32.74218 | -116.87466 | 4217 ft | 132 kts | 193° |
| 2026-05-04 03:11 | 32.73419 | -116.87873 | 4194 ft | 122 kts | 223° |
| 2026-05-04 03:11 | 32.72840 | -116.88583 | 4191 ft | 117 kts | 226° |
| 2026-05-04 03:12 | 32.72188 | -116.89164 | 4203 ft | 118 kts | 219° |
| 2026-05-04 03:12 | 32.71525 | -116.89726 | 4202 ft | 116 kts | 219° |
| 2026-05-04 03:12 | 32.70877 | -116.90289 | 4206 ft | 115 kts | 220° |
| 2026-05-04 03:12 | 32.70229 | -116.90860 | 4200 ft | 116 kts | 219° |
| 2026-05-04 03:13 | 32.69577 | -116.91437 | 4160 ft | 119 kts | 221° |
| 2026-05-04 03:13 | 32.68892 | -116.92049 | 4026 ft | 126 kts | 222° |
| 2026-05-04 03:13 | 32.68202 | -116.92661 | 3999 ft | 122 kts | 221° |
| 2026-05-04 03:13 | 32.67663 | -116.93394 | 3992 ft | 115 kts | 244° |
| 2026-05-04 03:14 | 32.67451 | -116.94287 | 3996 ft | 112 kts | 267° |
| 2026-05-04 03:14 | 32.67563 | -116.95187 | 3998 ft | 110 kts | 285° |
| 2026-05-04 03:14 | 32.67772 | -116.96046 | 3991 ft | 108 kts | 285° |
| 2026-05-04 03:14 | 32.67981 | -116.96896 | 4002 ft | 108 kts | 285° |
| 2026-05-04 03:15 | 32.68197 | -116.97773 | 3999 ft | 111 kts | 285° |
| 2026-05-04 03:15 | 32.68413 | -116.98650 | 3998 ft | 110 kts | 285° |
| 2026-05-04 03:15 | 32.68625 | -116.99541 | 3893 ft | 117 kts | 283° |
| 2026-05-04 03:15 | 32.68823 | -117.00492 | 3737 ft | 123 kts | 282° |
| 2026-05-04 03:16 | 32.69032 | -117.01494 | 3554 ft | 126 kts | 283° |
| 2026-05-04 03:16 | 32.69272 | -117.02516 | 3310 ft | 130 kts | 287° |
| 2026-05-04 03:16 | 32.69559 | -117.03527 | 3073 ft | 128 kts | 288° |
| 2026-05-04 03:16 | 32.69818 | -117.04524 | 2842 ft | 125 kts | 285° |
| 2026-05-04 03:17 | 32.70046 | -117.05508 | 2611 ft | 121 kts | 286° |
| 2026-05-04 03:17 | 32.70299 | -117.06457 | 2392 ft | 119 kts | 286° |
| 2026-05-04 03:17 | 32.70528 | -117.07384 | 2196 ft | 114 kts | 286° |
| 2026-05-04 03:17 | 32.70731 | -117.08278 | 2021 ft | 113 kts | 283° |
| 2026-05-04 03:18 | 32.70941 | -117.09159 | 1857 ft | 110 kts | 286° |
| 2026-05-04 03:18 | 32.71173 | -117.10020 | 1685 ft | 109 kts | 286° |
| 2026-05-04 03:18 | 32.71388 | -117.10883 | 1504 ft | 109 kts | 283° |
| 2026-05-04 03:18 | 32.71584 | -117.11743 | 1367 ft | 107 kts | 285° |
| 2026-05-04 03:19 | 32.71793 | -117.12575 | 1164 ft | 99 kts | 285° |
| 2026-05-04 03:19 | 32.71959 | -117.13279 | 1036 ft | 81 kts | 284° |
| 2026-05-04 03:19 | 32.72127 | -117.13890 | 893 ft | 72 kts | 281° |
| 2026-05-04 03:19 | 32.72269 | -117.14424 | 758 ft | 65 kts | 281° |
| 2026-05-04 03:20 | 32.72397 | -117.14949 | 706 ft | 67 kts | 278° |
| 2026-05-04 03:20 | 32.72519 | -117.15504 | 633 ft | 71 kts | 281° |
| 2026-05-04 03:20 | 32.72641 | -117.16043 | 467 ft | 64 kts | 284° |
| 2026-05-04 03:20 | 32.72774 | -117.16552 | 378 ft | 66 kts | 281° |
| 2026-05-04 03:21 | 32.72904 | -117.17085 | 281 ft | 68 kts | 282° |
| 2026-05-04 03:21 | 32.73032 | -117.17619 | 139 ft | 63 kts | 282° |
| 2026-05-04 03:21 | 32.73146 | -117.18100 | 44 ft | 59 kts | 283° |
| 2026-05-04 03:21 | 32.73248 | -117.18522 | 19 ft | 44 kts | 284° |
| 2026-05-04 03:22 | 32.73316 | -117.18775 | 18 ft | 20 kts | 304° |
| 2026-05-04 03:22 | 32.73385 | -117.18816 | 15 ft | 11 kts | 11° |
| 2026-05-04 03:22 | 32.73413 | -117.18808 | 16 ft | 0 kts | 20° |
| 2026-05-04 03:22 | 32.73414 | -117.18807 | 16 ft | 2 kts | 23° |
| 2026-05-04 03:23 | 32.73424 | -117.18771 | 19 ft | 8 kts | 105° |
| 2026-05-04 03:23 | 32.73400 | -117.18676 | 19 ft | 14 kts | 106° |
| 2026-05-04 03:23 | 32.73374 | -117.18564 | 19 ft | 14 kts | 107° |
| 2026-05-04 03:23 | 32.73345 | -117.18450 | 19 ft | 15 kts | 105° |
| 2026-05-04 03:24 | 32.73313 | -117.18312 | 18 ft | 18 kts | 105° |
| 2026-05-04 03:24 | 32.73280 | -117.18176 | 18 ft | 17 kts | 107° |
| 2026-05-04 03:24 | 32.73250 | -117.18055 | 18 ft | 14 kts | 107° |
| 2026-05-04 03:24 | 32.73259 | -117.17988 | 18 ft | 6 kts | 43° |
| 2026-05-04 03:25 | 32.73294 | -117.17973 | 18 ft | 6 kts | 14° |
| 2026-05-04 03:25 | 32.73334 | -117.17959 | 18 ft | 6 kts | 13° |
| 2026-05-04 03:25 | 32.73384 | -117.17954 | 18 ft | 10 kts | 339° |
| 2026-05-04 03:25 | 32.73421 | -117.17965 | 18 ft | 0 kts | 16° |